Time;durP1;ratioP1;P1;durP2;ratioP2;P2;SDS_P1;SDS_P2;PMS_P1;PMS_P2;Temp;Humidity;BMP_temperature;BMP_pressure;BME280_temperature;BME280_humidity;BME280_pressure;Samples;Min_cycle;Max_cycle;Signal;HPM_P1;HPM_P2
2021/11/21 00:02:16;;;;;;;82.75;16.20;;;;;;;0.31;80.29;93770.63;5066272;28;20032;-40
2021/11/21 00:04:42;;;;;;;65.25;15.50;;;;;;;0.23;80.21;93769.53;5065911;28;20094;-40
2021/11/21 00:07:07;;;;;;;56.97;17.10;;;;;;;0.21;79.93;93767.31;5070357;28;20043;-40
2021/11/21 00:09:33;;;;;;;69.13;16.70;;;;;;;0.02;80.48;93762.59;5070452;28;20091;-40
2021/11/21 00:11:58;;;;;;;46.65;21.35;;;;;;;0.27;79.94;93767.38;5070948;28;20024;-40
2021/11/21 00:14:24;;;;;;;62.55;22.08;;;;;;;0.18;79.38;93767.50;5070538;28;20036;-40
2021/11/21 00:16:52;;;;;;;42.67;18.75;;;;;;;-0.01;79.47;93750.72;5067582;28;20028;-40
2021/11/21 00:19:18;;;;;;;31.15;15.25;;;;;;;0.16;79.25;93767.97;5057564;28;20040;-40
2021/11/21 00:21:43;;;;;;;47.03;15.73;;;;;;;0.11;79.28;93762.47;5065699;28;20044;-41
2021/11/21 00:24:09;;;;;;;60.97;17.58;;;;;;;0.03;79.94;93762.13;5070820;28;20032;-40
2021/11/21 00:26:34;;;;;;;35.70;14.45;;;;;;;0.09;79.02;93765.66;5071047;28;20029;-40
2021/11/21 00:29:00;;;;;;;47.80;15.23;;;;;;;0.14;78.77;93766.94;5070810;28;20413;-40
2021/11/21 00:31:25;;;;;;;46.47;22.80;;;;;;;-0.01;78.87;93754.19;5070980;28;20047;-40
2021/11/21 00:33:51;;;;;;;43.83;16.45;;;;;;;-0.05;79.88;93752.88;5070287;28;20028;-40
2021/11/21 00:36:16;;;;;;;54.60;14.90;;;;;;;0.00;80.00;93747.53;5070038;28;20055;-40
2021/11/21 00:38:42;;;;;;;43.72;14.20;;;;;;;-0.14;80.05;93756.47;5070136;28;20135;-39
2021/11/21 00:41:07;;;;;;;87.82;14.50;;;;;;;-0.24;80.85;93743.50;5070700;28;20099;-39
2021/11/21 00:43:34;;;;;;;48.58;14.75;;;;;;;-0.24;80.66;93744.22;5070164;28;20028;-40
2021/11/21 00:46:00;;;;;;;61.92;12.68;;;;;;;-0.11;80.74;93738.50;5070395;28;20572;-39
2021/11/21 00:48:25;;;;;;;35.55;13.23;;;;;;;-0.03;80.97;93753.16;5069804;28;20031;-39
2021/11/21 00:50:54;;;;;;;39.65;11.90;;;;;;;-0.09;80.43;93744.19;5069946;28;20119;-40
2021/11/21 00:53:20;;;;;;;44.35;12.18;;;;;;;-0.05;80.14;93748.22;5070379;28;20029;-40
2021/11/21 00:55:53;;;;;;;60.60;13.48;;;;;;;-0.12;80.03;93739.72;5070723;28;20032;-40
2021/11/21 00:58:19;;;;;;;24.65;11.75;;;;;;;0.08;78.68;93744.41;5070299;28;20495;-40
2021/11/21 01:00:47;;;;;;;28.80;13.10;;;;;;;-0.29;79.02;93739.47;5070439;28;20032;-40
2021/11/21 01:03:15;;;;;;;34.05;13.80;;;;;;;-0.30;79.36;93734.50;5057504;28;20409;-41
2021/11/21 01:05:43;;;;;;;36.10;13.57;;;;;;;-0.45;79.97;93737.25;5050370;28;20029;-39
2021/11/21 01:08:09;;;;;;;35.97;16.08;;;;;;;-0.30;79.43;93732.56;5050438;28;20119;-40
2021/11/21 01:10:35;;;;;;;31.85;13.85;;;;;;;-0.35;78.81;93735.19;5050390;28;20121;-40
2021/11/21 01:13:00;;;;;;;32.97;13.90;;;;;;;-0.36;78.54;93730.97;5050310;28;20561;-40
2021/11/21 01:15:26;;;;;;;31.25;11.15;;;;;;;-0.39;78.35;93732.66;5049988;28;20494;-40
2021/11/21 01:17:53;;;;;;;41.78;10.80;;;;;;;-0.29;77.66;93723.22;5049119;28;20098;-40
2021/11/21 01:20:20;;;;;;;34.72;10.82;;;;;;;-0.29;78.32;93720.50;5050354;28;20096;-39
2021/11/21 01:22:46;;;;;;;42.10;12.50;;;;;;;-0.50;78.67;93720.91;5050271;28;20087;-40
2021/11/21 01:25:12;;;;;;;44.47;15.85;;;;;;;-0.58;79.72;93717.09;5050071;28;20662;-40
2021/11/21 01:27:39;;;;;;;52.08;16.85;;;;;;;-0.34;79.02;93706.84;5050180;28;20053;-40
2021/11/21 01:30:07;;;;;;;27.60;14.63;;;;;;;-0.22;78.16;93713.94;5050180;28;20086;-40
2021/11/21 01:32:33;;;;;;;35.40;15.43;;;;;;;-0.06;77.75;93714.13;5050058;28;20414;-40
2021/11/21 01:34:58;;;;;;;39.17;13.23;;;;;;;-0.07;77.39;93699.09;5050112;28;20029;-40
2021/11/21 01:37:24;;;;;;;45.35;15.02;;;;;;;-0.24;78.36;93700.81;5049688;28;20045;-40
2021/11/21 01:39:50;;;;;;;42.88;13.52;;;;;;;-0.14;78.22;93702.19;5050097;28;20060;-40
2021/11/21 01:42:15;;;;;;;46.25;13.77;;;;;;;-0.16;78.79;93696.50;5051326;28;20029;-40
2021/11/21 01:44:41;;;;;;;63.10;14.45;;;;;;;-0.20;79.44;93704.09;5069088;28;20116;-41
2021/11/21 01:47:07;;;;;;;41.88;13.38;;;;;;;-0.04;79.01;93694.66;5069490;28;20456;-41
2021/11/21 01:49:34;;;;;;;58.22;15.75;;;;;;;-0.24;79.69;93700.09;5071923;28;20078;-40
2021/11/21 01:51:59;;;;;;;139.55;18.45;;;;;;;-0.19;80.12;93694.72;5073492;28;20063;-40
2021/11/21 01:54:25;;;;;;;60.03;17.85;;;;;;;-0.13;79.55;93689.38;5073308;28;20056;-40
2021/11/21 01:56:50;;;;;;;85.80;19.08;;;;;;;-0.37;80.41;93697.69;5073000;28;20086;-39
2021/11/21 01:59:16;;;;;;;38.67;15.90;;;;;;;-0.25;80.26;93691.19;5073347;28;20046;-39
2021/11/21 02:01:42;;;;;;;58.15;14.68;;;;;;;-0.38;79.96;93655.50;5073428;28;20040;-40
2021/11/21 02:04:07;;;;;;;72.03;15.18;;;;;;;-0.18;79.71;93687.34;5073004;28;20032;-41
2021/11/21 02:06:33;;;;;;;52.88;15.23;;;;;;;-0.17;80.13;93683.38;5073258;28;20088;-40
2021/11/21 02:08:58;;;;;;;32.17;13.35;;;;;;;-0.07;79.30;93682.06;5071414;28;20094;-41
2021/11/21 02:11:26;;;;;;;27.27;13.35;;;;;;;-0.08;78.96;93681.31;5073047;28;20051;-40
2021/11/21 02:13:53;;;;;;;71.55;13.05;;;;;;;-0.14;78.29;93661.50;5073191;28;20108;-41
2021/11/21 02:16:20;;;;;;;39.65;12.43;;;;;;;-0.06;78.86;93675.38;5072814;28;20539;-40
2021/11/21 02:18:46;;;;;;;56.83;11.70;;;;;;;0.00;78.31;93668.81;5072952;28;20086;-40
2021/11/21 02:21:12;;;;;;;75.90;11.75;;;;;;;-0.01;78.46;93674.72;5072923;28;20033;-40
2021/11/21 02:23:38;;;;;;;124.65;14.27;;;;;;;-0.11;79.86;93667.94;5072225;28;20082;-40
2021/11/21 02:26:04;;;;;;;117.18;13.15;;;;;;;-0.12;79.55;93664.47;5071308;28;20016;-40
2021/11/21 02:28:30;;;;;;;81.93;15.35;;;;;;;-0.14;79.55;93672.34;5072532;28;20016;-40
2021/11/21 02:30:56;;;;;;;190.43;17.75;;;;;;;-0.17;79.47;93667.84;5072811;28;20735;-40
2021/11/21 02:33:22;;;;;;;105.57;12.95;;;;;;;-0.25;80.23;93661.34;5072466;28;20095;-40
2021/11/21 02:35:50;;;;;;;82.15;11.60;;;;;;;-0.40;80.82;93666.09;5072862;28;20017;-40
2021/11/21 02:38:17;;;;;;;73.40;11.93;;;;;;;-0.52;80.85;93661.00;5072279;28;20032;-40
2021/11/21 02:40:44;;;;;;;70.47;12.68;;;;;;;-0.82;81.21;93647.50;5069754;28;20524;-40
2021/11/21 02:43:10;;;;;;;86.38;19.55;;;;;;;-0.88;81.49;93651.34;5072107;28;20024;-40
2021/11/21 02:45:35;;;;;;;75.63;23.85;;;;;;;-0.83;81.19;93647.97;5072178;28;20017;-39
2021/11/21 02:48:01;;;;;;;53.88;14.85;;;;;;;-0.72;81.01;93650.84;5071907;28;20033;-39
2021/11/21 02:50:29;;;;;;;50.83;17.33;;;;;;;-0.83;81.15;93647.97;5071466;28;20024;-39
2021/11/21 02:52:56;;;;;;;95.78;30.52;;;;;;;-0.88;81.31;93645.91;5072198;28;20467;-40
2021/11/21 02:55:26;;;;;;;61.60;23.55;;;;;;;-0.70;80.95;93651.13;5072100;28;20114;-40
2021/11/21 02:57:52;;;;;;;63.97;20.20;;;;;;;-0.62;80.65;93649.50;5071761;28;20021;-40
2021/11/21 03:00:17;;;;;;;46.95;15.25;;;;;;;-0.65;80.30;93650.44;5070638;28;20035;-40
2021/11/21 03:02:45;;;;;;;36.47;13.73;;;;;;;-0.64;80.04;93651.94;5072298;28;20028;-40
2021/11/21 03:05:11;;;;;;;39.13;12.05;;;;;;;-0.63;79.87;93655.41;5071001;28;20020;-40
2021/11/21 03:07:36;;;;;;;86.22;14.38;;;;;;;-0.72;80.06;93623.75;5071339;28;20019;-40
2021/11/21 03:10:03;;;;;;;76.63;15.35;;;;;;;-0.64;80.03;93632.22;5071333;28;20473;-40
2021/11/21 03:12:28;;;;;;;90.82;17.80;;;;;;;-0.57;80.42;93645.38;5070402;28;20036;-40
2021/11/21 03:14:53;;;;;;;83.25;14.63;;;;;;;-0.63;80.17;93648.03;5071301;28;20025;-40
2021/11/21 03:17:20;;;;;;;54.85;14.43;;;;;;;-0.55;79.40;93648.38;5072355;28;20589;-40
2021/11/21 03:19:46;;;;;;;40.53;11.52;;;;;;;-0.84;79.79;93639.09;5072186;28;20028;-41
2021/11/21 03:22:13;;;;;;;35.90;10.40;;;;;;;-0.77;80.41;93633.28;5072135;28;20031;-41
2021/11/21 03:24:38;;;;;;;28.15;12.98;;;;;;;-0.77;80.56;93636.00;5071913;28;20059;-41
2021/11/21 03:27:04;;;;;;;43.75;17.50;;;;;;;-0.57;79.28;93639.97;5072120;28;20050;-41
2021/11/21 03:29:30;;;;;;;60.05;21.40;;;;;;;-0.47;78.79;93647.50;5070961;28;20017;-41
2021/11/21 03:31:55;;;;;;;61.85;16.15;;;;;;;-0.45;78.41;93642.34;5070414;28;20024;-41
2021/11/21 03:34:21;;;;;;;36.83;19.17;;;;;;;-0.45;78.68;93642.34;5069744;28;20089;-41
2021/11/21 03:36:47;;;;;;;71.68;21.48;;;;;;;-0.64;79.12;93645.75;5070776;28;20031;-40
2021/11/21 03:39:13;;;;;;;54.83;22.38;;;;;;;-0.53;79.15;93649.38;5070285;28;20033;-41
2021/11/21 03:41:39;;;;;;;58.88;22.35;;;;;;;-0.88;80.17;93648.63;5070831;28;20387;-40
2021/11/21 03:44:06;;;;;;;79.18;14.00;;;;;;;-0.82;80.18;93636.66;5070106;28;20551;-39
2021/11/21 03:46:33;;;;;;;52.08;11.93;;;;;;;-0.75;80.06;93646.34;5070473;28;20036;-40
2021/11/21 03:48:58;;;;;;;35.70;10.18;;;;;;;-0.72;79.63;93642.72;5070520;28;20111;-39
2021/11/21 03:51:24;;;;;;;32.38;10.73;;;;;;;-0.75;79.82;93640.94;5070135;28;20155;-40
2021/11/21 03:53:49;;;;;;;33.88;9.68;;;;;;;-0.76;79.82;93640.19;5068078;28;20081;-40
2021/11/21 03:56:15;;;;;;;42.92;9.52;;;;;;;-0.92;80.26;93640.69;5069908;28;20028;-39
2021/11/21 03:58:40;;;;;;;28.02;11.52;;;;;;;-0.93;80.05;93633.03;5070160;28;20048;-39
2021/11/21 04:01:06;;;;;;;101.32;32.65;;;;;;;-0.72;79.43;93636.53;5067566;28;20028;-39
2021/11/21 04:03:32;;;;;;;25.10;9.40;;;;;;;-0.69;79.27;93632.91;5070142;28;20024;-39
2021/11/21 04:05:57;;;;;;;27.27;10.32;;;;;;;-0.71;79.30;93632.63;5070237;28;20028;-40
2021/11/21 04:08:23;;;;;;;32.60;12.05;;;;;;;-0.70;79.06;93637.56;5069885;28;20513;-39
2021/11/21 04:10:48;;;;;;;38.80;13.25;;;;;;;-0.67;78.95;93631.19;5070146;28;20017;-40
2021/11/21 04:13:13;;;;;;;37.00;12.07;;;;;;;-0.79;79.05;93634.97;5068962;28;20386;-40
2021/11/21 04:15:39;;;;;;;20.75;9.52;;;;;;;-1.02;78.98;93620.31;5069698;28;20016;-40
2021/11/21 04:18:05;;;;;;;37.10;10.95;;;;;;;-1.16;80.59;93631.19;5070140;28;20012;-39
2021/11/21 04:20:30;;;;;;;50.17;13.05;;;;;;;-0.96;80.40;93633.97;5069643;28;20016;-40
2021/11/21 04:22:56;;;;;;;62.97;21.48;;;;;;;-0.87;80.28;93633.88;5070118;28;20016;-40
2021/11/21 04:25:22;;;;;;;66.30;14.40;;;;;;;-1.10;80.04;93607.63;5069576;28;20055;-40
2021/11/21 04:27:47;;;;;;;92.80;14.05;;;;;;;-0.94;80.59;93635.00;5069689;28;20024;-40
2021/11/21 04:30:15;;;;;;;71.50;14.23;;;;;;;-0.89;80.63;93637.03;5068612;28;20086;-40
2021/11/21 04:32:42;;;;;;;58.30;10.77;;;;;;;-0.86;80.57;93633.38;5066761;28;20099;-40
2021/11/21 04:35:09;;;;;;;86.57;12.30;;;;;;;-1.10;80.90;93632.78;5069483;28;20021;-40
2021/11/21 04:37:35;;;;;;;42.00;11.27;;;;;;;-1.10;81.27;93632.78;5069360;28;20083;-40
2021/11/21 04:40:03;;;;;;;43.75;11.05;;;;;;;-1.03;80.86;93635.09;5069816;28;20055;-40
2021/11/21 04:42:28;;;;;;;47.42;7.88;;;;;;;-0.99;80.33;93629.50;5069046;28;20099;-40
2021/11/21 04:44:54;;;;;;;40.75;12.40;;;;;;;-0.89;79.77;93630.88;5069269;28;20103;-40
2021/11/21 04:47:20;;;;;;;12.73;8.50;;;;;;;-1.01;79.37;93638.09;5069253;28;20523;-40
2021/11/21 04:49:45;;;;;;;14.32;8.45;;;;;;;-1.01;78.65;93634.63;5069348;28;20058;-40
2021/11/21 04:52:11;;;;;;;21.05;11.40;;;;;;;-1.11;79.28;93634.00;5069209;28;20676;-40
2021/11/21 04:54:37;;;;;;;26.02;14.10;;;;;;;-1.10;79.49;93626.59;5069037;28;20098;-39
2021/11/21 04:57:04;;;;;;;29.00;16.77;;;;;;;-1.03;78.99;93628.94;5068979;28;20028;-38
2021/11/21 04:59:29;;;;;;;15.75;10.05;;;;;;;-1.13;79.30;93627.56;5069074;28;20031;-39
2021/11/21 05:01:54;;;;;;;23.98;9.93;;;;;;;-1.01;78.89;93631.91;5068830;28;20024;-40
2021/11/21 05:04:20;;;;;;;17.15;10.73;;;;;;;-0.96;78.52;93634.72;5069409;28;20625;-40
2021/11/21 05:06:45;;;;;;;29.63;11.05;;;;;;;-1.13;78.24;93632.97;5069025;28;20024;-41
2021/11/21 05:22:00;;;;;;;40.15;23.80;;;;;;;-0.69;76.05;93643.75;5118906;27;20618;-40
2021/11/21 05:24:26;;;;;;;68.32;30.33;;;;;;;-0.88;75.76;93629.66;5114385;27;20114;-40
2021/11/21 05:26:54;;;;;;;148.75;66.57;;;;;;;-0.99;75.94;93626.78;5107407;28;20031;-41
2021/11/21 05:29:20;;;;;;;109.90;43.58;;;;;;;-1.06;76.30;93602.78;5125620;28;20020;-40
2021/11/21 05:31:46;;;;;;;78.55;33.40;;;;;;;-0.85;76.27;93634.16;5127113;27;20040;-40
2021/11/21 05:34:11;;;;;;;105.55;33.13;;;;;;;-0.88;76.25;93632.38;5126716;27;20069;-41
2021/11/21 05:36:36;;;;;;;110.07;26.38;;;;;;;-0.90;76.04;93632.84;5120490;27;20020;-41
2021/11/21 05:39:03;;;;;;;74.40;31.02;;;;;;;-1.16;77.03;93626.53;5117091;28;20024;-41
2021/11/21 05:41:28;;;;;;;119.18;31.98;;;;;;;-1.22;78.16;93627.66;5105870;28;20098;-41
2021/11/21 05:43:54;;;;;;;73.57;25.77;;;;;;;-1.09;77.71;93625.41;5105695;28;20027;-41
2021/11/21 05:46:19;;;;;;;118.75;26.50;;;;;;;-1.06;77.19;93625.19;5125192;28;20023;-42
2021/11/21 05:48:45;;;;;;;64.07;26.52;;;;;;;-1.06;76.72;93632.59;5122530;27;20023;-41
2021/11/21 05:51:11;;;;;;;70.32;29.52;;;;;;;-1.25;77.74;93625.88;5120562;28;20050;-40
2021/11/21 05:53:37;;;;;;;62.65;25.83;;;;;;;-1.45;78.72;93629.25;5126531;27;20028;-42
2021/11/21 05:56:02;;;;;;;70.88;25.58;;;;;;;-1.39;78.94;93632.06;5124717;28;20407;-41
2021/11/21 05:58:28;;;;;;;44.03;21.15;;;;;;;-1.54;79.09;93638.22;5127023;27;20099;-41
2021/11/21 06:00:53;;;;;;;62.10;22.17;;;;;;;-1.36;78.99;93631.88;5127423;27;20015;-41
2021/11/21 06:03:19;;;;;;;25.17;14.23;;;;;;;-1.31;78.36;93627.75;5127767;27;20084;-41
2021/11/21 06:05:44;;;;;;;56.40;28.08;;;;;;;-1.28;77.90;93630.28;5127629;27;20099;-41
2021/11/21 06:08:10;;;;;;;47.97;22.10;;;;;;;-1.17;77.27;93627.00;5127665;27;20035;-41
2021/11/21 06:10:35;;;;;;;30.42;16.55;;;;;;;-1.28;76.86;93635.72;5127417;27;20026;-41
2021/11/21 06:13:01;;;;;;;36.97;17.33;;;;;;;-1.25;77.57;93642.88;5116193;27;20032;-41
2021/11/21 06:15:27;;;;;;;27.13;14.80;;;;;;;-1.15;78.01;93640.84;5127522;27;20080;-40
2021/11/21 06:17:52;;;;;;;58.38;20.40;;;;;;;-0.88;77.73;93643.97;5127370;27;20228;-41
2021/11/21 06:20:18;;;;;;;24.02;11.57;;;;;;;-0.70;76.39;93636.81;5126713;27;20043;-41
2021/11/21 06:22:43;;;;;;;28.08;14.27;;;;;;;-0.77;76.91;93643.38;5115296;27;20027;-41
2021/11/21 06:25:10;;;;;;;29.65;15.60;;;;;;;-0.73;76.37;93643.16;5113825;28;20016;-41
2021/11/21 06:27:35;;;;;;;19.92;9.23;;;;;;;-0.72;76.75;93644.66;5113813;28;20165;-40
2021/11/21 06:30:01;;;;;;;23.38;8.60;;;;;;;-0.62;76.25;93649.50;5113749;28;20539;-41
2021/11/21 06:32:27;;;;;;;18.25;10.27;;;;;;;-0.39;75.83;93645.88;5111127;28;20027;-41
2021/11/21 06:34:52;;;;;;;66.05;31.15;;;;;;;-0.09;75.76;93649.94;5098548;28;20027;-41
2021/11/21 06:37:18;;;;;;;43.08;16.95;;;;;;;-0.03;74.46;93644.59;5112100;28;20019;-41
2021/11/21 06:39:44;;;;;;;32.13;17.13;;;;;;;0.15;74.45;93646.28;5109108;28;20015;-41
2021/11/21 06:42:11;;;;;;;21.15;12.23;;;;;;;0.26;73.24;93644.41;5096857;28;20032;-41
2021/11/21 06:44:37;;;;;;;28.92;15.18;;;;;;;0.45;73.21;93647.59;5107186;28;20027;-40
2021/11/21 06:47:03;;;;;;;65.07;25.65;;;;;;;0.38;72.39;93640.63;5094552;28;20411;-41
2021/11/21 06:49:29;;;;;;;26.52;12.35;;;;;;;0.41;72.56;93622.63;5101998;28;20027;-41
2021/11/21 06:51:54;;;;;;;19.35;13.20;;;;;;;0.52;72.79;93639.03;5088267;28;20024;-41
2021/11/21 06:54:20;;;;;;;36.47;20.77;;;;;;;0.66;72.71;93632.72;5090573;28;20054;-40
2021/11/21 06:56:46;;;;;;;56.22;25.08;;;;;;;0.83;71.98;93632.88;5090389;28;20043;-40
2021/11/21 06:59:11;;;;;;;30.67;15.80;;;;;;;0.98;71.93;93625.31;5089987;28;20479;-41
2021/11/21 07:01:40;;;;;;;20.25;11.98;;;;;;;1.18;71.98;93628.72;5090186;28;20024;-41
2021/11/21 07:04:05;;;;;;;;;;;;;;;1.54;71.40;93617.06;5090132;28;20028;-41
2021/11/21 07:06:40;;;;;;;56.05;21.67;;;;;;;2.12;69.84;93625.75;5090143;28;19962;-41
2021/11/21 07:09:08;;;;;;;35.60;16.13;;;;;;;2.68;67.56;93613.00;5088992;28;20028;-41
2021/11/21 07:11:34;;;;;;;31.45;14.13;;;;;;;3.16;65.57;93610.81;5089767;28;20043;-41
2021/11/21 07:13:59;;;;;;;24.33;11.98;;;;;;;3.61;65.03;93606.78;5089694;28;20054;-40
2021/11/21 07:16:25;;;;;;;43.35;19.52;;;;;;;3.73;63.85;93610.94;5098202;28;20058;-41
2021/11/21 07:18:51;;;;;;;40.63;20.45;;;;;;;3.68;64.19;93603.50;5100938;28;20038;-42
2021/11/21 07:21:17;;;;;;;51.03;25.33;;;;;;;3.44;65.30;93600.59;5109809;28;20047;-42
2021/11/21 07:23:43;;;;;;;27.40;18.08;;;;;;;3.54;65.25;93595.59;5109806;27;20054;-40
2021/11/21 07:26:09;;;;;;;20.08;14.82;;;;;;;3.14;66.88;93599.63;5098098;28;20459;-40
2021/11/21 07:28:34;;;;;;;17.00;13.00;;;;;;;3.69;66.27;93593.34;5099557;28;20020;-41
2021/11/21 07:31:00;;;;;;;18.52;13.32;;;;;;;3.88;65.20;93590.81;5096595;28;20678;-41
2021/11/21 07:33:25;;;;;;;9.88;8.82;;;;;;;3.95;65.03;93574.63;5096871;28;20024;-41
2021/11/21 07:35:53;;;;;;;13.95;10.65;;;;;;;4.21;64.94;93583.22;5098156;28;20138;-41
2021/11/21 07:38:19;;;;;;;33.55;22.95;;;;;;;4.85;64.31;93562.66;5099753;28;20024;-41
2021/11/21 07:40:45;;;;;;;15.70;10.55;;;;;;;5.78;60.56;93578.75;5099065;28;20039;-41
2021/11/21 07:43:10;;;;;;;11.85;8.73;;;;;;;6.51;58.45;93576.66;5098352;28;20024;-41
2021/11/21 07:45:36;;;;;;;7.88;6.40;;;;;;;7.44;55.49;93585.47;5099526;28;20196;-41
2021/11/21 07:48:02;;;;;;;17.25;14.02;;;;;;;7.79;54.04;93578.84;5097233;28;20127;-41
2021/11/21 07:50:27;;;;;;;12.13;10.32;;;;;;;8.55;52.29;93564.13;5096506;28;20019;-41
2021/11/21 07:52:53;;;;;;;8.38;6.95;;;;;;;9.50;50.13;93579.22;5098874;28;20070;-41
2021/11/21 07:55:18;;;;;;;11.10;6.25;;;;;;;10.03;49.51;93569.31;5098820;28;20028;-41
2021/11/21 07:57:44;;;;;;;6.93;5.28;;;;;;;10.92;48.49;93570.31;5097296;28;20020;-40
2021/11/21 08:00:12;;;;;;;13.32;10.90;;;;;;;11.86;45.62;93567.31;5097601;28;20495;-41
2021/11/21 08:02:37;;;;;;;14.45;10.82;;;;;;;11.93;44.46;93529.88;5099189;28;20043;-40
2021/11/21 08:05:04;;;;;;;8.32;6.88;;;;;;;13.26;42.63;93569.28;5096694;28;20032;-40
2021/11/21 08:07:29;;;;;;;10.68;7.90;;;;;;;14.47;40.67;93557.97;5097804;28;20031;-40
2021/11/21 08:09:55;;;;;;;9.98;8.80;;;;;;;14.44;39.16;93562.63;5098421;28;20043;-41
2021/11/21 08:12:20;;;;;;;7.60;6.90;;;;;;;14.78;38.98;93559.09;5096512;28;20040;-38
2021/11/21 08:14:46;;;;;;;7.88;6.43;;;;;;;15.32;39.59;93551.56;5098151;28;20024;-41
2021/11/21 08:17:12;;;;;;;19.33;11.50;;;;;;;15.90;37.14;93542.16;5097142;28;20030;-41
2021/11/21 08:19:38;;;;;;;14.27;11.95;;;;;;;16.72;36.72;93549.66;5097010;28;20020;-41
2021/11/21 08:22:04;;;;;;;22.38;16.58;;;;;;;17.02;36.46;93537.91;5098475;28;20503;-41
2021/11/21 08:24:29;;;;;;;31.55;23.58;;;;;;;17.41;35.45;93536.50;5097170;28;20063;-41
2021/11/21 08:26:55;;;;;;;42.97;31.92;;;;;;;18.03;34.89;93542.19;5096301;28;20111;-41
2021/11/21 08:29:20;;;;;;;25.30;19.25;;;;;;;18.41;33.71;93539.16;5098121;28;20027;-41
2021/11/21 08:31:47;;;;;;;10.80;9.40;;;;;;;18.54;33.84;93540.72;5096431;28;20024;-39
2021/11/21 08:34:12;;;;;;;9.40;8.48;;;;;;;19.11;32.83;93528.34;5096718;28;20019;-45
2021/11/21 08:36:38;;;;;;;10.63;7.72;;;;;;;19.28;32.47;93528.78;5098269;28;20027;-42
2021/11/21 08:39:04;;;;;;;10.68;9.57;;;;;;;18.84;33.44;93523.84;5096034;28;20019;-41
2021/11/21 08:41:29;;;;;;;10.93;9.82;;;;;;;19.38;32.52;93520.31;5097350;28;20018;-45
2021/11/21 08:43:56;;;;;;;10.73;9.63;;;;;;;19.72;33.24;93514.03;5097445;28;20459;-41
2021/11/21 08:46:22;;;;;;;11.35;10.25;;;;;;;20.05;32.56;93509.06;5095856;28;20498;-40
2021/11/21 08:48:47;;;;;;;9.73;8.25;;;;;;;20.31;31.57;93499.41;5094414;28;20028;-40
2021/11/21 08:51:13;;;;;;;9.70;8.80;;;;;;;20.66;31.24;93504.94;5085770;28;20024;-41
2021/11/21 08:53:38;;;;;;;12.32;9.77;;;;;;;20.93;30.77;93495.94;5086780;28;20089;-41
2021/11/21 08:56:04;;;;;;;9.85;8.95;;;;;;;20.06;31.74;93493.69;5088103;28;20024;-44
2021/11/21 08:58:30;;;;;;;8.93;7.68;;;;;;;20.56;31.05;93493.16;5087926;28;20496;-40
2021/11/21 09:00:55;;;;;;;8.30;7.28;;;;;;;20.68;31.38;93482.59;5088029;28;20027;-44
2021/11/21 09:03:21;;;;;;;7.15;6.55;;;;;;;21.21;31.36;93480.72;5087716;28;20424;-43
2021/11/21 09:05:46;;;;;;;7.53;6.82;;;;;;;21.89;30.66;93472.47;5101790;28;20081;-45
2021/11/21 09:08:13;;;;;;;8.02;7.30;;;;;;;22.30;30.07;93476.03;5107126;28;20569;-41
2021/11/21 09:10:39;;;;;;;7.10;6.47;;;;;;;22.46;28.99;93471.22;5103776;28;20051;-40
2021/11/21 09:13:04;;;;;;;10.20;8.18;;;;;;;22.50;29.74;93468.59;5096408;28;20031;-38
2021/11/21 09:15:30;;;;;;;9.23;8.10;;;;;;;22.13;29.20;93451.25;5101137;28;20299;-43
2021/11/21 09:17:55;;;;;;;8.77;7.88;;;;;;;22.50;29.21;93437.66;5105865;28;20106;-39
2021/11/21 09:20:25;;;;;;;8.40;7.63;;;;;;;21.86;29.61;93454.78;5104009;28;20504;-42
2021/11/21 09:22:51;;;;;;;8.73;7.82;;;;;;;22.35;29.73;93455.19;5107052;28;20033;-40
2021/11/21 09:25:17;;;;;;;12.23;10.80;;;;;;;22.48;30.56;93451.63;5107022;28;20023;-41
2021/11/21 09:27:43;;;;;;;8.45;7.63;;;;;;;23.25;28.76;93455.38;5106945;28;20036;-42
2021/11/21 09:30:10;;;;;;;8.57;7.78;;;;;;;23.44;28.16;93440.81;5106944;28;20051;-41
2021/11/21 09:32:36;;;;;;;9.88;8.95;;;;;;;23.10;29.08;93436.34;5102935;28;20024;-40
2021/11/21 09:35:03;;;;;;;12.55;9.38;;;;;;;23.51;28.77;93434.09;5093755;28;20032;-43
2021/11/21 09:37:28;;;;;;;10.38;9.43;;;;;;;23.93;28.21;93429.66;5097678;28;20028;-42
2021/11/21 09:39:54;;;;;;;11.40;10.25;;;;;;;24.05;27.99;93416.81;5097215;28;20407;-43
2021/11/21 09:42:19;;;;;;;12.68;11.30;;;;;;;24.06;27.93;93409.09;5098334;28;20027;-41
2021/11/21 09:44:45;;;;;;;14.60;13.02;;;;;;;24.59;27.64;93409.22;5098683;28;20641;-41
2021/11/21 09:47:12;;;;;;;13.73;12.05;;;;;;;24.36;27.53;93409.66;5099592;28;20032;-41
2021/11/21 09:49:38;;;;;;;12.35;11.05;;;;;;;24.05;27.25;93388.63;5097751;28;20024;-43
2021/11/21 09:52:04;;;;;;;15.48;9.88;;;;;;;24.74;26.89;93389.44;5098910;28;20023;-41
2021/11/21 09:54:30;;;;;;;14.38;12.88;;;;;;;24.64;26.42;93376.97;5099679;28;20037;-39
2021/11/21 09:56:56;;;;;;;10.93;9.18;;;;;;;24.51;26.78;93384.22;5099017;28;20053;-40
2021/11/21 09:59:50;;;;;;;6.32;4.50;;;;;;;24.71;25.51;93384.31;5104778;28;20412;-41
2021/11/21 10:02:21;;;;;;;12.85;9.43;;;;;;;24.84;26.01;93374.97;5096904;28;20028;-40
2021/11/21 10:04:47;;;;;;;6.05;5.30;;;;;;;24.89;25.68;93382.25;5093718;28;20081;-42
2021/11/21 10:07:28;;;;;;;6.10;5.50;;;;;;;24.00;25.64;93374.94;5095470;28;20100;-42
2021/11/21 10:09:54;;;;;;;3.10;2.83;;;;;;;23.75;24.17;93361.91;5113843;28;20031;-41
2021/11/21 10:12:21;;;;;;;3.10;2.80;;;;;;;22.97;25.10;93352.66;5114098;28;20023;-42
2021/11/21 10:15:05;;;;;;;2.88;2.28;;;;;;;22.17;26.70;93363.53;5112504;28;20030;-40
2021/11/21 10:17:32;;;;;;;3.13;2.83;;;;;;;22.31;25.78;93319.22;5113657;28;20080;-41
2021/11/21 10:20:13;;;;;;;3.47;3.17;;;;;;;22.39;26.24;93354.09;5110192;28;20064;-41
2021/11/21 10:23:06;;;;;;;3.63;2.72;;;;;;;22.82;26.39;93356.91;5112630;28;20038;-41
2021/11/21 10:25:31;;;;;;;4.30;3.78;;;;;;;22.85;26.65;93352.09;5110812;28;20040;-43
2021/11/21 10:28:15;;;;;;;3.17;2.60;;;;;;;22.72;25.09;93355.72;5098729;28;20042;-44
2021/11/21 10:31:10;;;;;;;3.05;2.53;;;;;;;22.25;26.51;93347.06;5106072;28;20024;-41
2021/11/21 10:33:41;;;;;;;3.75;3.10;;;;;;;22.39;26.47;93336.50;5103603;28;20027;-38
2021/11/21 10:36:44;;;;;;;7.80;3.33;;;;;;;23.08;26.10;93327.16;5101772;28;20036;-39
2021/11/21 10:39:09;;;;;;;6.28;3.85;;;;;;;23.65;26.57;93324.09;5095111;28;20047;-40
2021/11/21 10:41:41;;;;;;;3.50;3.20;;;;;;;22.84;27.27;93283.81;5102950;28;20024;-40
2021/11/21 10:44:12;;;;;;;4.30;3.50;;;;;;;23.28;27.29;93316.78;5101270;27;20100;-40
2021/11/21 10:46:48;;;;;;;9.82;3.95;;;;;;;23.00;27.70;93312.00;5103571;28;20028;-39
2021/11/21 10:49:28;;;;;;;5.38;4.68;;;;;;;23.25;27.38;93306.81;5099296;28;20472;-44
2021/11/21 10:52:13;;;;;;;4.43;3.88;;;;;;;23.62;27.24;93303.53;5100335;28;20020;-45
2021/11/21 10:54:45;;;;;;;5.30;4.40;;;;;;;23.69;26.89;93299.59;5102625;28;20558;-45
2021/11/21 10:57:22;;;;;;;8.38;5.93;;;;;;;23.68;26.86;93284.06;5103424;28;20047;-40
2021/11/21 10:59:58;;;;;;;4.95;3.70;;;;;;;23.91;26.17;93286.44;5104632;28;20023;-39
2021/11/21 11:02:27;;;;;;;4.97;4.10;;;;;;;23.49;27.17;93286.72;5102809;28;20023;-39
2021/11/21 11:04:56;;;;;;;6.00;5.40;;;;;;;23.66;27.22;93286.06;5106392;28;20023;-39
2021/11/21 11:07:21;;;;;;;;;;;;;;;23.48;25.99;93280.38;5103742;28;20028;-40
2021/11/21 11:09:46;;;;;;;6.15;4.45;;;;;;;23.49;26.31;93281.81;5092499;28;20461;-41
2021/11/21 11:12:12;;;;;;;12.13;4.60;;;;;;;23.31;27.20;93250.72;5105088;28;20419;-40
2021/11/21 11:14:38;;;;;;;6.35;4.97;;;;;;;23.27;26.66;93263.91;5111897;28;20404;-40
2021/11/21 11:17:04;;;;;;;7.57;6.18;;;;;;;23.19;27.82;93261.47;5112582;28;20023;-45
2021/11/21 11:19:32;;;;;;;5.72;4.85;;;;;;;23.08;27.65;93262.38;5111667;28;20110;-44
2021/11/21 11:21:57;;;;;;;5.40;4.68;;;;;;;22.40;29.31;93251.47;5112221;28;20495;-41
2021/11/21 11:24:25;;;;;;;12.73;11.50;;;;;;;22.69;29.69;93250.00;5112612;28;20106;-41
2021/11/21 11:27:12;;;;;;;8.73;7.82;;;;;;;22.47;28.49;93250.41;5104899;28;20063;-45
2021/11/21 11:29:43;;;;;;;11.60;10.45;;;;;;;22.44;29.07;93248.84;5107750;28;20106;-41
2021/11/21 11:32:22;;;;;;;4.95;4.55;;;;;;;22.66;28.45;93240.75;5112141;28;20030;-40
2021/11/21 11:34:48;;;;;;;10.13;5.30;;;;;;;22.59;28.68;93242.56;5112445;28;20023;-43